Time;durP1;ratioP1;P1;durP2;ratioP2;P2;SDS_P1;SDS_P2;PMS_P1;PMS_P2;Temp;Humidity;BMP_temperature;BMP_pressure;BME280_temperature;BME280_humidity;BME280_pressure;Samples;Min_cycle;Max_cycle;Signal;HPM_P1;HPM_P2
2023/10/29 00:02:24;;;;;;;11.73;5.47;;;9.70;99.90;;;;;;5040160;28;20026;-77
2023/10/29 00:04:50;;;;;;;10.77;5.40;;;9.70;99.90;;;;;;5042199;28;20039;-78
2023/10/29 00:07:16;;;;;;;12.80;5.32;;;9.70;99.90;;;;;;5040996;28;20021;-77
2023/10/29 00:09:42;;;;;;;9.88;5.45;;;9.80;99.90;;;;;;5041683;28;20335;-76
2023/10/29 00:12:10;;;;;;;11.52;5.35;;;9.80;99.90;;;;;;5042417;28;20143;-76
2023/10/29 00:14:35;;;;;;;11.15;5.13;;;9.80;99.90;;;;;;5041528;28;20086;-76
2023/10/29 00:17:01;;;;;;;10.40;5.07;;;9.80;99.90;;;;;;5041579;28;20033;-76
2023/10/29 00:19:27;;;;;;;10.20;5.10;;;9.80;99.90;;;;;;5041504;28;20021;-76
2023/10/29 00:21:52;;;;;;;13.27;5.40;;;9.90;99.90;;;;;;5041638;28;20517;-78
2023/10/29 00:24:18;;;;;;;10.50;4.95;;;9.90;99.90;;;;;;5041354;28;20018;-78
2023/10/29 00:26:44;;;;;;;9.18;4.88;;;9.90;99.90;;;;;;5040444;28;20052;-78
2023/10/29 00:29:10;;;;;;;10.77;5.03;;;9.80;99.90;;;;;;5040143;28;20029;-74
2023/10/29 00:31:38;;;;;;;13.10;4.93;;;9.90;99.90;;;;;;5041407;28;20041;-75
2023/10/29 00:34:04;;;;;;;10.88;5.65;;;9.90;99.90;;;;;;5041138;28;20181;-75
2023/10/29 00:36:29;;;;;;;13.25;5.15;;;9.90;99.90;;;;;;5041051;28;20041;-77
2023/10/29 00:38:55;;;;;;;13.18;5.38;;;10.00;99.90;;;;;;5039731;28;20025;-77
2023/10/29 00:41:21;;;;;;;13.15;5.95;;;10.00;99.90;;;;;;5041028;28;20101;-76
2023/10/29 00:43:47;;;;;;;11.80;5.60;;;10.00;99.90;;;;;;5040096;28;20064;-77
2023/10/29 00:46:14;;;;;;;13.15;5.55;;;9.90;99.90;;;;;;5039191;28;20026;-76
2023/10/29 00:48:41;;;;;;;10.68;5.57;;;10.00;99.90;;;;;;5041100;28;20025;-78
2023/10/29 00:51:06;;;;;;;12.60;5.75;;;9.90;99.90;;;;;;5039708;28;20411;-76
2023/10/29 00:53:33;;;;;;;12.73;5.53;;;10.00;99.90;;;;;;5041944;28;20052;-76
2023/10/29 00:56:00;;;;;;;14.50;5.97;;;10.00;99.90;;;;;;5042090;28;20025;-76
2023/10/29 00:58:27;;;;;;;13.57;5.50;;;10.00;99.90;;;;;;5039591;28;20104;-79
2023/10/29 01:00:53;;;;;;;9.45;5.05;;;10.00;99.90;;;;;;5039009;28;20026;-77
2023/10/29 01:03:18;;;;;;;9.18;4.35;;;10.00;99.90;;;;;;5041477;28;20080;-75
2023/10/29 01:05:45;;;;;;;13.73;5.82;;;10.00;99.90;;;;;;5041037;28;20109;-75
2023/10/29 01:08:12;;;;;;;19.08;6.20;;;10.00;99.90;;;;;;5040074;28;20022;-76
2023/10/29 01:10:38;;;;;;;9.35;5.13;;;10.10;99.90;;;;;;5039330;28;20052;-76
2023/10/29 01:13:04;;;;;;;12.75;6.95;;;10.10;99.90;;;;;;5038283;28;20067;-75
2023/10/29 01:15:30;;;;;;;12.05;6.20;;;10.00;99.90;;;;;;5040327;28;20025;-76
2023/10/29 01:17:55;;;;;;;16.05;6.80;;;10.10;99.90;;;;;;5040409;28;20028;-77
2023/10/29 01:20:21;;;;;;;18.48;6.72;;;10.10;99.90;;;;;;5039670;28;20026;-76
2023/10/29 01:22:47;;;;;;;16.98;6.50;;;10.10;99.90;;;;;;5040455;28;20022;-75
2023/10/29 01:25:13;;;;;;;17.98;6.38;;;10.10;99.90;;;;;;5040726;28;20029;-76
2023/10/29 01:27:38;;;;;;;15.10;6.40;;;10.10;99.90;;;;;;5040559;28;20029;-75
2023/10/29 01:30:05;;;;;;;16.58;6.93;;;10.10;99.90;;;;;;5039526;28;20044;-76
2023/10/29 01:32:32;;;;;;;18.20;7.35;;;10.10;99.90;;;;;;5040077;28;20033;-75
2023/10/29 01:34:57;;;;;;;17.92;7.22;;;10.20;99.90;;;;;;5039189;28;20021;-75
2023/10/29 01:37:23;;;;;;;14.90;6.72;;;10.20;99.90;;;;;;5040929;28;20035;-74
2023/10/29 01:39:49;;;;;;;16.52;7.95;;;10.20;99.90;;;;;;5041085;28;20035;-77
2023/10/29 01:42:14;;;;;;;15.35;7.28;;;10.20;99.90;;;;;;5040200;28;20057;-74
2023/10/29 01:44:40;;;;;;;16.80;8.13;;;10.20;99.90;;;;;;5041354;28;20093;-75
2023/10/29 01:47:06;;;;;;;16.92;8.60;;;10.20;99.90;;;;;;5039617;28;20492;-75
2023/10/29 01:49:32;;;;;;;17.00;7.63;;;10.20;99.90;;;;;;5040722;28;20060;-76
2023/10/29 01:51:57;;;;;;;20.63;8.30;;;10.20;99.90;;;;;;5039821;28;20060;-76
2023/10/29 01:54:23;;;;;;;14.55;7.10;;;10.30;99.90;;;;;;5038331;28;20022;-74
2023/10/29 01:56:49;;;;;;;19.27;8.90;;;10.30;99.90;;;;;;5041160;28;20029;-75
2023/10/29 01:59:15;;;;;;;23.25;8.55;;;10.20;99.90;;;;;;5040496;28;20036;-74
2023/10/29 02:01:41;;;;;;;18.65;8.00;;;10.20;99.90;;;;;;5039874;28;20021;-74
2023/10/29 02:04:11;;;;;;;19.85;7.68;;;10.30;99.90;;;;;;5038572;28;20100;-74
2023/10/29 02:06:39;;;;;;;14.07;7.50;;;10.30;99.90;;;;;;5039181;28;20022;-75
2023/10/29 02:09:09;;;;;;;22.75;8.43;;;10.30;99.90;;;;;;5039844;28;20021;-75
2023/10/29 02:11:38;;;;;;;14.88;7.13;;;10.30;99.90;;;;;;5039603;28;20037;-74
2023/10/29 02:14:07;;;;;;;15.30;8.07;;;10.30;99.90;;;;;;5040120;28;20233;-76
2023/10/29 02:16:33;;;;;;;18.05;7.65;;;10.40;99.90;;;;;;5038803;28;20032;-75
2023/10/29 02:18:59;;;;;;;16.67;6.95;;;10.40;99.90;;;;;;5044914;28;20104;-77
2023/10/29 02:21:25;;;;;;;16.48;7.22;;;10.40;99.90;;;;;;5047465;28;20030;-76
2023/10/29 02:23:52;;;;;;;16.05;7.38;;;10.40;99.90;;;;;;5045549;28;20205;-74
2023/10/29 02:26:18;;;;;;;17.60;7.38;;;10.40;99.90;;;;;;5045932;28;20018;-77
2023/10/29 02:28:43;;;;;;;18.35;7.90;;;10.40;99.90;;;;;;5047095;28;20025;-74
2023/10/29 02:31:16;;;;;;;14.70;7.75;;;10.40;99.90;;;;;;5044347;28;20223;-75
2023/10/29 02:33:43;;;;;;;17.45;7.10;;;10.50;99.90;;;;;;5046470;28;20061;-71
2023/10/29 02:36:09;;;;;;;20.15;8.45;;;10.50;99.90;;;;;;5043449;28;20428;-78
2023/10/29 02:38:37;;;;;;;14.07;6.82;;;10.50;99.90;;;;;;5046071;28;20687;-77
2023/10/29 02:41:06;;;;;;;16.63;7.97;;;10.50;99.90;;;;;;5046575;28;20581;-75
2023/10/29 02:43:32;;;;;;;13.70;6.88;;;10.50;99.90;;;;;;5047200;28;20026;-75
2023/10/29 02:45:58;;;;;;;17.10;7.78;;;10.50;99.90;;;;;;5047052;28;20025;-76
2023/10/29 02:48:24;;;;;;;17.05;8.38;;;10.60;99.90;;;;;;5044938;28;20056;-75
2023/10/29 02:50:51;;;;;;;20.58;7.78;;;10.60;99.90;;;;;;5045314;28;20044;-76
2023/10/29 02:53:17;;;;;;;19.23;8.02;;;10.50;99.90;;;;;;5046056;28;20018;-75
2023/10/29 02:55:43;;;;;;;23.20;8.18;;;10.60;99.90;;;;;;5046868;28;20052;-75
2023/10/29 02:58:08;;;;;;;11.25;5.53;;;10.60;99.90;;;;;;5045766;28;20055;-75
2023/10/29 03:00:34;;;;;;;20.25;8.15;;;10.60;99.90;;;;;;5045828;28;20469;-75
2023/10/29 03:03:00;;;;;;;20.50;7.97;;;10.60;99.90;;;;;;5046317;28;20056;-75
2023/10/29 03:05:25;;;;;;;19.40;7.43;;;10.70;99.90;;;;;;5046645;28;20021;-75
2023/10/29 03:07:51;;;;;;;20.67;8.00;;;10.70;99.90;;;;;;5046952;28;20033;-74
2023/10/29 03:10:17;;;;;;;18.23;8.25;;;10.70;99.90;;;;;;5045592;28;20069;-72
2023/10/29 03:12:42;;;;;;;14.80;6.88;;;10.70;99.90;;;;;;5045659;28;20022;-71
2023/10/29 03:15:09;;;;;;;13.15;6.72;;;10.70;99.90;;;;;;5046929;28;20033;-73
2023/10/29 03:17:35;;;;;;;23.35;7.78;;;10.80;99.90;;;;;;5045944;28;20026;-70
2023/10/29 03:20:00;;;;;;;15.95;6.90;;;10.80;99.90;;;;;;5045514;28;20021;-75
2023/10/29 03:22:26;;;;;;;14.75;6.95;;;10.80;99.90;;;;;;5045532;28;20033;-73
2023/10/29 03:24:55;;;;;;;14.57;7.25;;;10.80;99.90;;;;;;5045659;28;20025;-73
2023/10/29 03:27:20;;;;;;;20.35;7.97;;;10.80;99.90;;;;;;5045385;28;20052;-74
2023/10/29 03:29:46;;;;;;;16.15;7.63;;;10.90;99.90;;;;;;5043319;28;20045;-73
2023/10/29 03:32:12;;;;;;;16.80;7.07;;;10.80;99.90;;;;;;5042788;28;20025;-72
2023/10/29 03:34:37;;;;;;;20.33;6.82;;;10.90;99.90;;;;;;5042624;28;20075;-70
2023/10/29 03:37:03;;;;;;;15.38;5.40;;;10.90;99.90;;;;;;5042251;28;20024;-72
2023/10/29 03:39:31;;;;;;;11.60;6.28;;;10.90;99.90;;;;;;5042491;28;20036;-75
2023/10/29 03:41:56;;;;;;;16.20;6.13;;;10.90;99.90;;;;;;5040823;28;20046;-74
2023/10/29 03:44:22;;;;;;;13.10;6.60;;;10.90;99.90;;;;;;5042534;28;20040;-74
2023/10/29 03:46:52;;;;;;;12.05;6.10;;;10.90;99.90;;;;;;5042882;28;20025;-74
2023/10/29 03:49:20;;;;;;;16.08;6.10;;;10.90;99.90;;;;;;5042753;28;20033;-74
2023/10/29 03:51:47;;;;;;;12.63;6.22;;;10.90;99.90;;;;;;5042245;28;20071;-74
2023/10/29 03:54:13;;;;;;;13.68;6.38;;;10.90;99.90;;;;;;5040256;28;20030;-75
2023/10/29 03:56:38;;;;;;;10.82;6.70;;;10.90;99.90;;;;;;5042323;28;20105;-76
2023/10/29 03:59:04;;;;;;;13.18;6.10;;;11.00;99.90;;;;;;5042322;28;20163;-75
2023/10/29 04:01:29;;;;;;;13.60;6.65;;;10.90;99.90;;;;;;5041565;28;20067;-74
2023/10/29 04:03:55;;;;;;;11.80;6.72;;;10.90;99.90;;;;;;5042578;28;20025;-72
2023/10/29 04:06:21;;;;;;;13.98;6.55;;;10.90;99.90;;;;;;5041836;28;20037;-74
2023/10/29 04:08:47;;;;;;;14.93;5.90;;;10.90;99.90;;;;;;5040704;28;20037;-74
2023/10/29 04:11:12;;;;;;;11.23;5.82;;;10.90;99.90;;;;;;5041843;28;20044;-75
2023/10/29 04:13:38;;;;;;;15.07;6.22;;;10.90;99.90;;;;;;5042047;28;20060;-74
2023/10/29 04:16:03;;;;;;;14.07;6.07;;;10.90;99.90;;;;;;5041575;28;20026;-75
2023/10/29 04:18:31;;;;;;;11.18;5.47;;;10.90;99.90;;;;;;5041688;28;20116;-74
2023/10/29 04:20:58;;;;;;;11.50;5.68;;;11.00;99.90;;;;;;5041973;28;20032;-75
2023/10/29 04:23:23;;;;;;;13.55;5.60;;;10.90;99.90;;;;;;5040885;28;20048;-75
2023/10/29 04:25:49;;;;;;;11.27;5.45;;;10.90;99.90;;;;;;5042045;28;20033;-74
2023/10/29 04:28:15;;;;;;;10.13;5.07;;;10.90;99.90;;;;;;5041182;28;20045;-73
2023/10/29 04:30:41;;;;;;;14.75;5.43;;;10.90;99.90;;;;;;5041527;28;20033;-73
2023/10/29 04:33:07;;;;;;;16.55;5.78;;;10.90;99.90;;;;;;5041318;28;20355;-74
2023/10/29 04:35:33;;;;;;;16.60;4.75;;;11.00;99.90;;;;;;5039536;28;20022;-72
2023/10/29 04:37:59;;;;;;;11.15;5.30;;;11.00;99.90;;;;;;5039032;28;20075;-74
2023/10/29 04:40:24;;;;;;;10.68;5.00;;;11.00;99.90;;;;;;5040246;28;20072;-73
2023/10/29 04:42:50;;;;;;;12.65;4.70;;;11.00;99.90;;;;;;5039469;28;20029;-75
2023/10/29 04:45:16;;;;;;;12.48;4.70;;;11.00;99.90;;;;;;5041500;28;20021;-74
2023/10/29 04:47:41;;;;;;;11.77;4.70;;;11.00;99.90;;;;;;5041499;28;20036;-74
2023/10/29 04:50:07;;;;;;;10.30;4.97;;;11.00;99.90;;;;;;5040937;28;20072;-72
2023/10/29 04:52:33;;;;;;;13.63;5.85;;;11.00;99.90;;;;;;5041033;28;20032;-75
2023/10/29 04:55:01;;;;;;;8.60;4.68;;;11.00;99.90;;;;;;5041199;28;20072;-75
2023/10/29 04:57:28;;;;;;;8.32;4.30;;;11.00;99.90;;;;;;5039401;28;20022;-73
2023/10/29 04:59:54;;;;;;;10.23;4.00;;;11.00;99.90;;;;;;5040951;28;20029;-75
2023/10/29 05:02:19;;;;;;;11.65;4.13;;;11.10;99.90;;;;;;5041023;28;20029;-74
2023/10/29 05:04:46;;;;;;;6.55;3.92;;;11.10;99.90;;;;;;5040831;28;20051;-73
2023/10/29 05:07:12;;;;;;;9.80;4.30;;;11.00;99.90;;;;;;5040632;28;20089;-74
2023/10/29 05:09:38;;;;;;;7.50;3.70;;;11.10;99.90;;;;;;5039321;28;20032;-73
2023/10/29 05:12:04;;;;;;;8.93;3.83;;;11.10;99.90;;;;;;5040496;28;20025;-74
2023/10/29 05:14:29;;;;;;;7.68;3.63;;;11.10;99.90;;;;;;5040407;28;20041;-75
2023/10/29 05:16:56;;;;;;;8.77;3.60;;;11.10;99.90;;;;;;5039690;28;20382;-75
2023/10/29 05:19:21;;;;;;;5.32;3.60;;;11.20;99.90;;;;;;5040609;28;20021;-75
2023/10/29 05:21:47;;;;;;;6.72;3.85;;;11.20;99.90;;;;;;5040793;28;20052;-74
2023/10/29 05:24:12;;;;;;;6.63;3.78;;;11.10;99.90;;;;;;5038955;28;20064;-74
2023/10/29 05:26:38;;;;;;;7.55;3.55;;;11.20;99.90;;;;;;5040994;28;20036;-73
2023/10/29 05:29:04;;;;;;;7.97;3.90;;;11.20;99.90;;;;;;5040184;28;20036;-74
2023/10/29 05:31:31;;;;;;;9.70;3.35;;;11.20;99.90;;;;;;5038147;28;20041;-73
2023/10/29 05:34:00;;;;;;;12.80;4.30;;;11.20;99.90;;;;;;5038124;28;20061;-75
2023/10/29 05:36:26;;;;;;;7.53;3.53;;;11.20;99.90;;;;;;5032409;28;20030;-74
2023/10/29 05:38:52;;;;;;;8.85;4.50;;;11.20;99.90;;;;;;5039497;28;20026;-74
2023/10/29 05:41:17;;;;;;;7.28;4.32;;;11.20;99.90;;;;;;5039905;28;20049;-75
2023/10/29 05:43:43;;;;;;;8.68;3.45;;;11.30;99.90;;;;;;5040171;28;20044;-74
2023/10/29 05:46:13;;;;;;;7.32;3.35;;;11.20;99.90;;;;;;5038635;28;20030;-71
2023/10/29 05:48:39;;;;;;;7.30;3.05;;;11.20;99.90;;;;;;5039855;28;20423;-73
2023/10/29 05:51:05;;;;;;;8.30;3.85;;;11.30;99.90;;;;;;5038175;28;20509;-72
2023/10/29 05:53:30;;;;;;;5.13;3.38;;;11.30;99.90;;;;;;5037351;28;20120;-75
2023/10/29 05:55:56;;;;;;;7.95;3.58;;;11.30;99.90;;;;;;5037997;28;20025;-73
2023/10/29 05:58:24;;;;;;;7.55;3.33;;;11.30;99.90;;;;;;5039512;28;20032;-73
2023/10/29 06:00:50;;;;;;;10.63;3.95;;;11.30;99.90;;;;;;5040693;28;20100;-75
2023/10/29 06:03:16;;;;;;;6.93;3.40;;;11.20;99.90;;;;;;5038058;28;20032;-74
2023/10/29 06:05:42;;;;;;;8.85;3.17;;;11.20;99.90;;;;;;5039398;28;20077;-75
2023/10/29 06:08:07;;;;;;;6.38;3.45;;;11.20;99.90;;;;;;5038510;28;20071;-72
2023/10/29 06:10:33;;;;;;;7.25;3.50;;;11.20;99.90;;;;;;5039664;28;20039;-73
2023/10/29 06:12:59;;;;;;;11.90;3.85;;;11.20;99.90;;;;;;5039479;28;20021;-73
2023/10/29 06:15:25;;;;;;;5.65;3.10;;;11.20;99.90;;;;;;5039305;28;20017;-74
2023/10/29 06:17:53;;;;;;;7.18;3.15;;;11.30;99.90;;;;;;5038729;28;20037;-77
2023/10/29 06:20:20;;;;;;;8.43;3.38;;;11.30;99.90;;;;;;5038208;28;20018;-74
2023/10/29 06:22:50;;;;;;;5.47;2.85;;;11.30;99.90;;;;;;5039557;28;20022;-73
2023/10/29 06:25:16;;;;;;;7.90;2.70;;;11.30;99.90;;;;;;5037906;28;20030;-74
2023/10/29 06:27:42;;;;;;;6.53;2.58;;;11.30;99.90;;;;;;5039524;28;20053;-74
2023/10/29 06:30:08;;;;;;;5.88;2.53;;;11.30;99.90;;;;;;5039212;28;20036;-75
2023/10/29 06:32:34;;;;;;;8.40;2.75;;;11.30;99.90;;;;;;5038682;28;20521;-74
2023/10/29 06:34:59;;;;;;;6.63;2.63;;;11.30;99.90;;;;;;5039491;28;20052;-74
2023/10/29 06:37:25;;;;;;;4.65;2.60;;;11.40;99.90;;;;;;5036623;28;21466;-72
2023/10/29 06:39:52;;;;;;;9.40;2.50;;;11.30;99.90;;;;;;5038184;28;20036;-74
2023/10/29 06:42:17;;;;;;;9.48;2.33;;;11.40;99.90;;;;;;5039301;28;20061;-73
2023/10/29 06:44:43;;;;;;;8.25;2.30;;;11.40;99.90;;;;;;5039613;28;20045;-70
2023/10/29 06:47:08;;;;;;;4.70;2.05;;;11.40;99.90;;;;;;5039106;28;20053;-70
2023/10/29 06:49:34;;;;;;;10.07;2.50;;;11.40;99.90;;;;;;5039159;28;20038;-72
2023/10/29 06:52:00;;;;;;;6.85;2.22;;;11.50;99.90;;;;;;5038272;28;20045;-73
2023/10/29 06:54:25;;;;;;;6.70;2.53;;;11.50;99.90;;;;;;5038801;28;20116;-74
2023/10/29 06:56:51;;;;;;;5.50;2.30;;;11.50;99.90;;;;;;5038171;28;20021;-71
2023/10/29 06:59:18;;;;;;;6.50;2.70;;;11.50;99.90;;;;;;5038906;28;20176;-73
2023/10/29 07:01:44;;;;;;;6.25;2.20;;;11.60;99.90;;;;;;5037881;28;20029;-73
2023/10/29 07:04:09;;;;;;;6.10;1.70;;;11.60;99.90;;;;;;5036781;28;20108;-72
2023/10/29 07:06:35;;;;;;;4.93;1.67;;;11.70;99.90;;;;;;5043448;28;20112;-74
2023/10/29 07:09:01;;;;;;;4.00;1.63;;;11.70;99.90;;;;;;5043310;28;20025;-73
2023/10/29 07:11:29;;;;;;;2.60;1.65;;;11.70;99.90;;;;;;5038296;28;20482;-73
2023/10/29 07:13:55;;;;;;;7.22;2.13;;;11.80;99.90;;;;;;5041814;28;20029;-72
2023/10/29 07:16:21;;;;;;;4.13;2.10;;;11.70;99.90;;;;;;5042488;28;20064;-75
2023/10/29 07:18:47;;;;;;;4.07;1.77;;;11.90;99.90;;;;;;5042018;28;20030;-73
2023/10/29 07:21:14;;;;;;;6.35;1.52;;;11.90;99.90;;;;;;5038880;28;20021;-70
2023/10/29 07:23:40;;;;;;;5.00;1.67;;;12.00;99.90;;;;;;5039795;28;20450;-71
2023/10/29 07:26:06;;;;;;;7.18;1.80;;;12.10;99.90;;;;;;5040989;28;20370;-73
2023/10/29 07:28:34;;;;;;;10.85;1.45;;;12.10;99.90;;;;;;5042051;28;20022;-71
2023/10/29 07:31:00;;;;;;;3.40;1.67;;;12.10;99.90;;;;;;5041275;28;20161;-73
2023/10/29 07:33:25;;;;;;;9.43;1.85;;;12.10;99.90;;;;;;5043189;28;20101;-73
2023/10/29 07:35:51;;;;;;;3.60;1.85;;;12.10;99.90;;;;;;5042526;28;20022;-72
2023/10/29 07:38:19;;;;;;;4.95;2.00;;;12.00;99.90;;;;;;5042294;28;20073;-72
2023/10/29 07:40:45;;;;;;;4.40;1.92;;;12.00;99.90;;;;;;5042455;28;20061;-72
2023/10/29 07:43:10;;;;;;;7.07;2.15;;;12.00;99.90;;;;;;5041465;28;20030;-72
2023/10/29 07:45:36;;;;;;;6.47;2.13;;;12.00;99.90;;;;;;5042203;28;20030;-72
2023/10/29 07:48:02;;;;;;;5.45;2.10;;;12.00;99.90;;;;;;5042488;28;20043;-73
2023/10/29 07:50:28;;;;;;;6.45;2.42;;;12.00;99.90;;;;;;5041155;28;20501;-73
2023/10/29 07:52:53;;;;;;;3.13;2.00;;;12.00;99.90;;;;;;5040599;28;20026;-74
2023/10/29 07:55:19;;;;;;;7.85;2.17;;;12.00;99.90;;;;;;5041802;28;20125;-73
2023/10/29 07:57:45;;;;;;;4.80;1.98;;;12.00;99.90;;;;;;5041434;28;20025;-74
2023/10/29 08:00:13;;;;;;;8.15;2.28;;;12.10;99.90;;;;;;5041171;28;20044;-73
2023/10/29 08:02:39;;;;;;;6.78;2.08;;;12.10;99.90;;;;;;5037727;28;20021;-72
2023/10/29 08:05:04;;;;;;;3.95;1.80;;;12.20;99.90;;;;;;5041645;28;20025;-70
2023/10/29 08:07:30;;;;;;;3.35;1.55;;;12.20;99.90;;;;;;5041228;28;20105;-74
2023/10/29 08:09:58;;;;;;;4.50;2.08;;;12.40;99.90;;;;;;5032252;28;20033;-72
2023/10/29 08:12:25;;;;;;;3.38;1.50;;;12.60;99.90;;;;;;5036513;28;20042;-71
2023/10/29 08:14:51;;;;;;;2.95;1.58;;;12.80;99.90;;;;;;5039517;28;20029;-73
2023/10/29 08:17:17;;;;;;;3.22;1.30;;;13.00;99.90;;;;;;5028425;28;20117;-73
2023/10/29 08:19:46;;;;;;;6.60;1.27;;;13.30;99.90;;;;;;5038315;28;20173;-74
2023/10/29 08:22:12;;;;;;;4.50;1.48;;;13.40;99.90;;;;;;5032125;28;20036;-75
2023/10/29 08:24:39;;;;;;;3.05;1.55;;;13.50;99.90;;;;;;5036752;28;20030;-75
2023/10/29 08:27:06;;;;;;;8.95;1.63;;;13.60;99.90;;;;;;5034087;28;20033;-78
2023/10/29 08:29:35;;;;;;;3.15;1.10;;;13.70;99.90;;;;;;5034403;28;20033;-73
2023/10/29 08:32:01;;;;;;;3.33;1.20;;;13.80;99.90;;;;;;5040687;28;20033;-71
2023/10/29 08:34:27;;;;;;;2.53;1.23;;;13.70;99.90;;;;;;5035056;28;20033;-71
2023/10/29 08:36:54;;;;;;;2.25;1.20;;;13.70;99.90;;;;;;5035142;28;20057;-72
2023/10/29 08:39:21;;;;;;;5.13;1.30;;;13.60;99.90;;;;;;5037545;28;20384;-72
2023/10/29 08:41:47;;;;;;;3.72;1.25;;;13.60;99.90;;;;;;5036845;28;20049;-72
2023/10/29 08:44:13;;;;;;;4.97;1.27;;;13.50;99.90;;;;;;5038796;28;20029;-72
2023/10/29 08:46:41;;;;;;;5.80;1.45;;;13.50;99.90;;;;;;5037228;28;20136;-73
2023/10/29 08:49:07;;;;;;;5.47;1.58;;;13.50;99.90;;;;;;5041832;28;20033;-75
2023/10/29 08:51:34;;;;;;;14.40;2.00;;;13.40;99.90;;;;;;5039620;28;20045;-75
2023/10/29 08:54:02;;;;;;;7.40;1.80;;;13.40;99.90;;;;;;5041108;28;20057;-73
2023/10/29 08:56:29;;;;;;;5.38;1.98;;;13.30;99.90;;;;;;5038502;28;20054;-71
2023/10/29 08:58:54;;;;;;;4.35;1.70;;;13.10;99.90;;;;;;5040308;28;20036;-74
2023/10/29 09:01:20;;;;;;;4.75;1.92;;;13.10;99.90;;;;;;5037166;28;20052;-74
2023/10/29 09:03:46;;;;;;;6.05;2.08;;;13.00;99.90;;;;;;5035533;28;20119;-75
2023/10/29 09:06:12;;;;;;;5.15;2.90;;;12.90;99.90;;;;;;5032489;28;20083;-74
2023/10/29 09:08:39;;;;;;;6.20;1.85;;;12.80;99.90;;;;;;5034840;28;20093;-76
2023/10/29 09:11:04;;;;;;;4.55;1.50;;;12.70;99.90;;;;;;5034526;28;20049;-74
2023/10/29 09:13:30;;;;;;;3.90;1.65;;;12.60;99.90;;;;;;5033788;28;20041;-76
2023/10/29 09:15:57;;;;;;;7.65;1.83;;;12.60;99.90;;;;;;5037783;28;20026;-75
2023/10/29 09:18:23;;;;;;;3.55;1.58;;;12.60;99.90;;;;;;5033525;28;20355;-77
2023/10/29 09:20:50;;;;;;;4.20;1.52;;;12.60;99.90;;;;;;5035220;28;20033;-72
2023/10/29 09:23:16;;;;;;;3.53;1.77;;;12.60;99.90;;;;;;5039136;28;20017;-73
2023/10/29 09:25:45;;;;;;;9.68;1.85;;;12.70;99.90;;;;;;5034084;28;20453;-75
2023/10/29 09:28:11;;;;;;;4.88;1.98;;;12.70;99.90;;;;;;5028117;28;20434;-72
2023/10/29 09:30:40;;;;;;;6.28;1.70;;;12.70;99.90;;;;;;5033657;28;20034;-72
2023/10/29 09:33:08;;;;;;;5.45;1.38;;;12.70;99.90;;;;;;5039257;28;20029;-76
2023/10/29 09:35:35;;;;;;;4.85;1.33;;;12.80;99.90;;;;;;5039233;28;20030;-74
2023/10/29 09:38:01;;;;;;;2.25;1.10;;;12.80;99.90;;;;;;5039375;28;20053;-75
2023/10/29 09:40:26;;;;;;;3.80;1.60;;;12.90;99.90;;;;;;5040573;28;20045;-75
2023/10/29 09:42:55;;;;;;;8.20;1.45;;;13.00;99.90;;;;;;5037529;28;20033;-72
2023/10/29 09:45:27;;;;;;;7.90;1.58;;;13.00;99.90;;;;;;5037218;28;20029;-73
2023/10/29 09:47:54;;;;;;;4.07;1.40;;;13.00;99.90;;;;;;5038216;28;20029;-76
2023/10/29 09:50:21;;;;;;;7.07;1.10;;;13.00;99.90;;;;;;5039383;28;20104;-77
2023/10/29 09:52:51;;;;;;;2.40;0.98;;;13.20;99.90;;;;;;5039930;28;20065;-76
2023/10/29 09:55:20;;;;;;;6.20;1.42;;;13.30;99.90;;;;;;5038834;28;20026;-74
2023/10/29 09:57:50;;;;;;;4.97;1.20;;;13.40;99.90;;;;;;5038661;28;20028;-75
2023/10/29 10:00:16;;;;;;;6.88;1.00;;;13.60;99.90;;;;;;5038712;28;20033;-72
2023/10/29 10:02:53;;;;;;;10.50;1.25;;;13.80;99.90;;;;;;5037826;28;20036;-75
2023/10/29 10:05:20;;;;;;;4.88;1.30;;;14.00;99.90;;;;;;5038454;28;20049;-72
2023/10/29 10:07:47;;;;;;;3.92;1.10;;;14.10;99.90;;;;;;5040745;28;20030;-74
2023/10/29 10:10:13;;;;;;;4.88;1.30;;;14.30;99.90;;;;;;5038590;28;20109;-76
2023/10/29 10:12:50;;;;;;;2.83;1.00;;;14.40;99.90;;;;;;5039807;28;20022;-73
2023/10/29 10:15:19;;;;;;;7.53;1.70;;;14.50;99.90;;;;;;5036911;28;20021;-78
2023/10/29 10:17:56;;;;;;;7.05;1.15;;;14.60;99.90;;;;;;5038413;28;20037;-71
2023/10/29 10:20:22;;;;;;;6.75;0.98;;;14.70;99.90;;;;;;5039095;28;20024;-72
2023/10/29 10:22:56;;;;;;;9.85;1.35;;;14.80;99.90;;;;;;5039559;28;20018;-74
2023/10/29 10:25:23;;;;;;;2.45;0.90;;;14.80;99.90;;;;;;5038624;28;20523;-72
2023/10/29 10:27:51;;;;;;;5.90;1.50;;;14.90;99.90;;;;;;5039133;28;20026;-76
2023/10/29 10:30:40;;;;;;;4.03;1.48;;;14.90;99.90;;;;;;5039359;28;20025;-73
2023/10/29 10:33:13;;;;;;;5.80;1.23;;;15.10;99.90;;;;;;5038531;28;20034;-76
2023/10/29 10:35:42;;;;;;;6.13;1.30;;;15.20;99.90;;;;;;5039108;28;20041;-75
2023/10/29 10:38:08;;;;;;;5.40;1.00;;;15.30;99.90;;;;;;5036773;28;20103;-77
2023/10/29 10:40:34;;;;;;;4.07;0.75;;;15.40;99.90;;;;;;5042195;28;20048;-73
2023/10/29 10:43:01;;;;;;;4.38;1.13;;;15.50;99.90;;;;;;5045356;28;21437;-78
2023/10/29 10:45:28;;;;;;;3.88;0.98;;;15.50;99.90;;;;;;5043860;28;20071;-78
2023/10/29 10:48:00;;;;;;;2.13;0.80;;;15.50;99.90;;;;;;5044017;28;20053;-75
2023/10/29 10:50:26;;;;;;;4.13;1.15;;;15.50;99.90;;;;;;5043160;28;20150;-72
2023/10/29 10:52:52;;;;;;;6.40;1.10;;;15.50;99.90;;;;;;5043055;28;20037;-77
2023/10/29 10:55:19;;;;;;;4.65;0.98;;;15.50;99.90;;;;;;5043303;28;20358;-73
2023/10/29 10:57:45;;;;;;;8.07;1.30;;;15.50;99.90;;;;;;5044187;28;20104;-73
2023/10/29 11:00:12;;;;;;;4.38;1.00;;;15.50;99.90;;;;;;5042947;28;20083;-74
2023/10/29 11:02:41;;;;;;;5.88;0.90;;;15.50;99.90;;;;;;5042797;28;20038;-76
2023/10/29 11:05:11;;;;;;;7.38;1.35;;;15.70;99.90;;;;;;5033444;28;20045;-76
2023/10/29 11:07:38;;;;;;;6.22;1.60;;;15.90;99.90;;;;;;5039738;28;20044;-74
2023/10/29 11:10:08;;;;;;;4.85;1.00;;;16.10;99.90;;;;;;5034592;28;20045;-74
2023/10/29 11:12:34;;;;;;;5.40;1.40;;;16.30;99.90;;;;;;5042104;28;20039;-76
2023/10/29 11:15:16;;;;;;;8.70;1.60;;;16.50;99.90;;;;;;5040270;28;20030;-75
2023/10/29 11:17:57;;;;;;;3.88;0.90;;;16.60;99.90;;;;;;5043257;28;20473;-73
2023/10/29 11:20:49;;;;;;;6.88;1.00;;;16.60;99.90;;;;;;5042783;28;20030;-77
2023/10/29 11:23:28;;;;;;;11.13;1.30;;;16.70;99.90;;;;;;5043782;28;20482;-71
2023/10/29 11:26:22;;;;;;;8.05;1.25;;;16.70;99.90;;;;;;5043043;28;20047;-73
2023/10/29 11:28:53;;;;;;;6.00;1.20;;;16.70;99.90;;;;;;5043519;28;20036;-75
2023/10/29 11:31:23;;;;;;;5.80;1.02;;;16.80;99.90;;;;;;5042177;28;20098;-73
2023/10/29 11:33:54;;;;;;;6.38;1.40;;;16.90;99.90;;;;;;5042216;28;20025;-75
2023/10/29 11:36:36;;;;;;;6.95;1.45;;;16.90;99.90;;;;;;5042648;28;20029;-72
2023/10/29 11:39:14;;;;;;;4.95;1.52;;;16.90;99.90;;;;;;5040311;28;20036;-74
2023/10/29 11:41:40;;;;;;;5.20;1.30;;;16.90;99.90;;;;;;5039008;28;20506;-75
2023/10/29 11:44:28;;;;;;;6.25;1.40;;;16.90;99.90;;;;;;5040833;28;20033;-74
2023/10/29 11:46:59;;;;;;;6.93;1.73;;;17.10;99.90;;;;;;5042607;28;20018;-75
2023/10/29 11:49:51;;;;;;;6.82;1.30;;;17.20;99.90;;;;;;5042357;28;20044;-74
2023/10/29 11:52:17;;;;;;;8.63;1.05;;;17.10;99.90;;;;;;5034829;28;20068;-73
2023/10/29 11:54:43;;;;;;;6.60;1.20;;;16.80;99.90;;;;;;5042881;28;20055;-78
2023/10/29 11:57:09;;;;;;;6.97;1.42;;;16.50;99.90;;;;;;5043097;28;20026;-75
2023/10/29 11:59:51;;;;;;;5.93;1.10;;;16.40;99.90;;;;;;5043009;28;20017;-76
2023/10/29 12:02:17;;;;;;;6.43;1.15;;;16.30;99.90;;;;;;5041622;28;20488;-75
2023/10/29 12:04:42;;;;;;;5.95;1.40;;;16.10;99.90;;;;;;5041845;28;20058;-74
2023/10/29 12:07:08;;;;;;;5.72;1.25;;;16.20;99.90;;;;;;5043043;28;20032;-72
2023/10/29 12:09:35;;;;;;;4.78;1.10;;;16.20;99.90;;;;;;5042368;28;20028;-75
2023/10/29 12:12:09;;;;;;;6.97;1.50;;;16.20;99.90;;;;;;5040936;28;20052;-76
2023/10/29 12:14:43;;;;;;;7.35;1.30;;;16.30;99.90;;;;;;5042706;28;20596;-74
2023/10/29 12:17:10;;;;;;;4.97;1.48;;;16.30;99.90;;;;;;5041994;28;20033;-72
2023/10/29 12:19:41;;;;;;;6.93;1.95;;;16.30;99.90;;;;;;5040781;28;20025;-75
2023/10/29 12:22:23;;;;;;;7.88;1.70;;;16.30;99.90;;;;;;5057511;28;20064;-77
2023/10/29 12:24:53;;;;;;;6.30;1.50;;;16.40;99.90;;;;;;5041837;28;20056;-75
2023/10/29 12:27:21;;;;;;;8.20;2.20;;;16.30;99.90;;;;;;5041637;28;20097;-78
2023/10/29 12:29:47;;;;;;;9.23;2.70;;;16.30;99.90;;;;;;5042383;28;20022;-77
2023/10/29 12:32:22;;;;;;;10.57;2.63;;;16.40;99.90;;;;;;5039710;28;20634;-74
2023/10/29 12:34:52;;;;;;;6.32;1.75;;;16.40;99.90;;;;;;5042445;28;20021;-72
2023/10/29 12:37:30;;;;;;;7.97;1.98;;;16.60;99.90;;;;;;5037653;28;20021;-76
2023/10/29 12:39:59;;;;;;;8.13;1.65;;;16.80;99.90;;;;;;5040162;28;20029;-78
2023/10/29 12:42:53;;;;;;;9.18;2.28;;;17.00;99.90;;;;;;5040495;28;20020;-76
2023/10/29 12:45:31;;;;;;;8.38;2.28;;;16.90;99.90;;;;;;5040395;28;20033;-75